Airfield :
LOGIN :

Register | Disclaimer

   EN    FR    IT 

 










Legend :    VFR   Marginal VFR   IFR   Intensive IFR   Very Intensive IFR
Visi :
Ceiling :
>= 8 km
>= 3000ft
5 to 8 km
1000 to 3000 ft
1500m to 5 km
500 to 1000 ft
800 to 1500m
200 to 500 ft
< 800m
< 200 ft
Symbols :   Thunderstorms  Fog  Heavy snow  Heavy precipitations  Wind > 20 kt
SIGMETs :     Misc.  Thunderstorms  Icing  Turbulence  Mountain Waves  Volcanic Ashes






- Airport Elevation : 46 ft
- IATA code : SNN


EINN - Shannon

CURRENT METAR :
  • 252300Z 14013KT 9999 SCT011 BKN040 09/07 Q1003 NOSIG

EXPIRED METARs :
  • 252230Z 15015KT 9999 SCT015 BKN022 BKN040 09/07 Q1003 NOSIG
  • 252200Z 14015KT 9999 SCT015 BKN022 09/07 Q1004 NOSIG
  • 252130Z 14012KT 9999 SCT017 BKN020 08/07 Q1004 NOSIG
  • 252100Z 15013KT 9999 FEW018 BKN042 BKN055 09/06 Q1005 NOSIG
  • 252030Z 14015KT 9999 FEW018 BKN055 08/06 Q1005 NOSIG
  • 252000Z 16012KT 9999 SCT018 BKN045 09/06 Q1006 NOSIG

TAF TAF EINN
Valid from the 25 at 18:00 until the 26 at 18:00 UTC


251700Z 2518/2618 16015KT 9999 FEW012 BKN028
TEMPO 2518/2522 BKN012
BECMG 2520/2522 17017G27KT
TEMPO 2522/2604 4000 -RA BKN008
PROB40
TEMPO 2601/2604 3000 RA BKN005
BECMG 2602/2604 25013KT
TEMPO 2604/2606 5000 -SHRA BKN014
TEMPO 2610/2612 -SHRA SCT018CB
BECMG 2614/2616 21010KT
BECMG 2616/2618 17012KT



MET'MAP, your aeronautical weather chart ! - Copyright ORBIFLY December 2007 - Disclaimer

ORBIFLY MET'MAP TEAM :

Programming & Development : Alexandra Zaïnal
Concept & original design : Baudouin d'Aumeries
Assistance for programming : Marc-Olivier Méhu
Technical & hardware support : Manuel Goepfert

Contact : metmap@orbifly.com




SOURCES & CREDITS :

   NOAA